Pinehaven, South Carolina
Current Conditions -  °F | °C
As of 11:56 PM on Wednesday 22 Oct 2014 (Local Time) from KCHS Reporting Station
Clear Clear  
Wind Chill: 51°   Ceiling: Unl
Heat Index: 51°   Visibility: 10mi
Dew Point: 45°   Wind: 6mph
Humidity: 80%   Direction: 360°N
Pressure: 30.07"   Gusts: NA
Location:  32.8537°N, 79.9839°W
Report Text: KCHS 230356Z 36005KT 10SM CLR 11/07 A3007 RMK AO2 SLP183 T01060072
Loading
Personal Weather Stations






























Interactive Weather Map
Tropical Storm Tracking
New forecast layout! Learn more

10-Day Weather Forecast

Advertisements
Track Severe Weather on mobile